sensor_id;sensor_type;location;lat;lon;timestamp;P1;durP1;ratioP1;P2;durP2;ratioP2
8421;SDS011;4248;48.196;10.924;2023-08-30T00:00:41;17.40;;;11.20;;
8421;SDS011;4248;48.196;10.924;2023-08-30T00:03:07;19.63;;;12.40;;
8421;SDS011;4248;48.196;10.924;2023-08-30T00:05:33;19.30;;;10.17;;
8421;SDS011;4248;48.196;10.924;2023-08-30T00:07:59;14.20;;;10.67;;
8421;SDS011;4248;48.196;10.924;2023-08-30T00:10:24;15.10;;;11.13;;
8421;SDS011;4248;48.196;10.924;2023-08-30T00:12:50;14.77;;;10.63;;
8421;SDS011;4248;48.196;10.924;2023-08-30T00:15:16;14.10;;;10.13;;
8421;SDS011;4248;48.196;10.924;2023-08-30T00:17:41;17.27;;;11.07;;
8421;SDS011;4248;48.196;10.924;2023-08-30T00:20:07;15.17;;;10.43;;
8421;SDS011;4248;48.196;10.924;2023-08-30T00:22:38;14.47;;;10.17;;
8421;SDS011;4248;48.196;10.924;2023-08-30T00:25:04;15.57;;;10.80;;
8421;SDS011;4248;48.196;10.924;2023-08-30T00:27:30;17.67;;;11.30;;
8421;SDS011;4248;48.196;10.924;2023-08-30T00:29:56;15.27;;;10.67;;
8421;SDS011;4248;48.196;10.924;2023-08-30T00:32:21;16.77;;;11.50;;
8421;SDS011;4248;48.196;10.924;2023-08-30T00:34:51;16.63;;;10.20;;
8421;SDS011;4248;48.196;10.924;2023-08-30T00:37:17;14.10;;;10.73;;
8421;SDS011;4248;48.196;10.924;2023-08-30T00:39:42;16.50;;;10.80;;
8421;SDS011;4248;48.196;10.924;2023-08-30T00:42:08;15.87;;;10.83;;
8421;SDS011;4248;48.196;10.924;2023-08-30T00:44:34;17.10;;;11.20;;
8421;SDS011;4248;48.196;10.924;2023-08-30T00:47:00;15.20;;;11.13;;
8421;SDS011;4248;48.196;10.924;2023-08-30T00:49:28;16.60;;;11.40;;
8421;SDS011;4248;48.196;10.924;2023-08-30T00:51:56;17.43;;;11.77;;
8421;SDS011;4248;48.196;10.924;2023-08-30T00:54:23;15.43;;;10.47;;
8421;SDS011;4248;48.196;10.924;2023-08-30T00:56:49;16.97;;;11.70;;
8421;SDS011;4248;48.196;10.924;2023-08-30T00:59:15;15.17;;;10.83;;
8421;SDS011;4248;48.196;10.924;2023-08-30T01:01:41;18.00;;;11.60;;
8421;SDS011;4248;48.196;10.924;2023-08-30T01:04:07;16.90;;;11.80;;
8421;SDS011;4248;48.196;10.924;2023-08-30T01:06:33;18.50;;;10.80;;
8421;SDS011;4248;48.196;10.924;2023-08-30T01:09:02;14.80;;;11.00;;
8421;SDS011;4248;48.196;10.924;2023-08-30T01:14:12;15.83;;;11.87;;
8421;SDS011;4248;48.196;10.924;2023-08-30T01:16:44;18.17;;;12.20;;
8421;SDS011;4248;48.196;10.924;2023-08-30T01:22:29;18.10;;;11.33;;
8421;SDS011;4248;48.196;10.924;2023-08-30T01:28:04;17.60;;;11.87;;
8421;SDS011;4248;48.196;10.924;2023-08-30T01:30:32;27.70;;;12.03;;
8421;SDS011;4248;48.196;10.924;2023-08-30T01:33:02;15.80;;;11.93;;
8421;SDS011;4248;48.196;10.924;2023-08-30T01:35:30;17.47;;;11.90;;
8421;SDS011;4248;48.196;10.924;2023-08-30T01:38:02;17.10;;;12.07;;
8421;SDS011;4248;48.196;10.924;2023-08-30T01:40:32;16.40;;;11.63;;
8421;SDS011;4248;48.196;10.924;2023-08-30T01:43:00;17.10;;;11.37;;
8421;SDS011;4248;48.196;10.924;2023-08-30T01:45:29;17.30;;;11.70;;
8421;SDS011;4248;48.196;10.924;2023-08-30T01:47:56;16.07;;;10.80;;
8421;SDS011;4248;48.196;10.924;2023-08-30T01:50:22;16.53;;;11.87;;
8421;SDS011;4248;48.196;10.924;2023-08-30T01:52:49;18.20;;;12.20;;
8421;SDS011;4248;48.196;10.924;2023-08-30T01:55:15;18.27;;;11.83;;
8421;SDS011;4248;48.196;10.924;2023-08-30T01:57:45;18.13;;;12.53;;
8421;SDS011;4248;48.196;10.924;2023-08-30T02:00:11;17.97;;;12.53;;
8421;SDS011;4248;48.196;10.924;2023-08-30T02:02:37;18.30;;;12.10;;
8421;SDS011;4248;48.196;10.924;2023-08-30T02:05:03;16.27;;;11.60;;
8421;SDS011;4248;48.196;10.924;2023-08-30T02:07:51;22.83;;;12.67;;
8421;SDS011;4248;48.196;10.924;2023-08-30T02:10:24;20.40;;;13.30;;
8421;SDS011;4248;48.196;10.924;2023-08-30T02:12:54;15.80;;;10.67;;
8421;SDS011;4248;48.196;10.924;2023-08-30T02:15:21;18.17;;;12.50;;
8421;SDS011;4248;48.196;10.924;2023-08-30T02:17:49;20.30;;;12.10;;
8421;SDS011;4248;48.196;10.924;2023-08-30T02:20:15;21.07;;;11.53;;
8421;SDS011;4248;48.196;10.924;2023-08-30T02:22:42;14.87;;;11.20;;
8421;SDS011;4248;48.196;10.924;2023-08-30T02:25:07;16.13;;;11.90;;
8421;SDS011;4248;48.196;10.924;2023-08-30T02:27:34;19.93;;;12.90;;
8421;SDS011;4248;48.196;10.924;2023-08-30T02:30:00;17.30;;;11.10;;
8421;SDS011;4248;48.196;10.924;2023-08-30T02:32:26;15.40;;;10.70;;
8421;SDS011;4248;48.196;10.924;2023-08-30T02:34:52;15.80;;;11.40;;
8421;SDS011;4248;48.196;10.924;2023-08-30T02:37:18;15.47;;;11.17;;
8421;SDS011;4248;48.196;10.924;2023-08-30T02:39:44;17.37;;;12.03;;
8421;SDS011;4248;48.196;10.924;2023-08-30T02:42:10;14.43;;;10.67;;
8421;SDS011;4248;48.196;10.924;2023-08-30T02:44:35;14.77;;;10.90;;
8421;SDS011;4248;48.196;10.924;2023-08-30T02:47:01;18.60;;;10.50;;
8421;SDS011;4248;48.196;10.924;2023-08-30T02:49:27;15.73;;;11.00;;
8421;SDS011;4248;48.196;10.924;2023-08-30T02:51:53;17.37;;;11.10;;
8421;SDS011;4248;48.196;10.924;2023-08-30T02:54:18;15.97;;;11.63;;
8421;SDS011;4248;48.196;10.924;2023-08-30T02:56:44;16.53;;;11.10;;
8421;SDS011;4248;48.196;10.924;2023-08-30T02:59:10;16.30;;;12.23;;
8421;SDS011;4248;48.196;10.924;2023-08-30T03:01:37;13.67;;;10.03;;
8421;SDS011;4248;48.196;10.924;2023-08-30T03:04:06;15.40;;;10.57;;
8421;SDS011;4248;48.196;10.924;2023-08-30T03:06:33;15.80;;;9.90;;
8421;SDS011;4248;48.196;10.924;2023-08-30T03:08:59;16.10;;;11.00;;
8421;SDS011;4248;48.196;10.924;2023-08-30T03:11:25;17.07;;;10.60;;
8421;SDS011;4248;48.196;10.924;2023-08-30T03:13:50;14.40;;;10.30;;
8421;SDS011;4248;48.196;10.924;2023-08-30T03:16:18;19.60;;;11.00;;
8421;SDS011;4248;48.196;10.924;2023-08-30T03:18:44;18.40;;;9.97;;
8421;SDS011;4248;48.196;10.924;2023-08-30T03:21:10;14.43;;;10.27;;
8421;SDS011;4248;48.196;10.924;2023-08-30T03:23:36;14.70;;;10.67;;
8421;SDS011;4248;48.196;10.924;2023-08-30T03:28:35;15.43;;;10.10;;
8421;SDS011;4248;48.196;10.924;2023-08-30T03:31:01;13.37;;;9.40;;
8421;SDS011;4248;48.196;10.924;2023-08-30T03:33:26;14.77;;;9.70;;
8421;SDS011;4248;48.196;10.924;2023-08-30T03:35:52;14.83;;;10.47;;
8421;SDS011;4248;48.196;10.924;2023-08-30T03:38:18;15.37;;;10.03;;
8421;SDS011;4248;48.196;10.924;2023-08-30T03:40:44;14.63;;;10.23;;
8421;SDS011;4248;48.196;10.924;2023-08-30T03:43:09;14.70;;;9.93;;
8421;SDS011;4248;48.196;10.924;2023-08-30T03:45:36;13.17;;;9.60;;
8421;SDS011;4248;48.196;10.924;2023-08-30T03:48:02;15.47;;;10.60;;
8421;SDS011;4248;48.196;10.924;2023-08-30T03:50:28;14.40;;;9.60;;
8421;SDS011;4248;48.196;10.924;2023-08-30T03:52:57;15.30;;;10.03;;
8421;SDS011;4248;48.196;10.924;2023-08-30T03:55:23;15.83;;;9.47;;
8421;SDS011;4248;48.196;10.924;2023-08-30T03:57:48;13.50;;;9.83;;
8421;SDS011;4248;48.196;10.924;2023-08-30T04:00:14;14.60;;;9.73;;
8421;SDS011;4248;48.196;10.924;2023-08-30T04:02:40;15.60;;;10.33;;
8421;SDS011;4248;48.196;10.924;2023-08-30T04:05:06;14.27;;;10.60;;
8421;SDS011;4248;48.196;10.924;2023-08-30T04:07:35;18.00;;;10.90;;
8421;SDS011;4248;48.196;10.924;2023-08-30T04:10:01;13.77;;;10.40;;
8421;SDS011;4248;48.196;10.924;2023-08-30T04:12:31;15.37;;;11.70;;
8421;SDS011;4248;48.196;10.924;2023-08-30T04:14:56;18.13;;;10.10;;
8421;SDS011;4248;48.196;10.924;2023-08-30T04:17:22;13.50;;;9.10;;
8421;SDS011;4248;48.196;10.924;2023-08-30T04:19:51;16.13;;;10.93;;
8421;SDS011;4248;48.196;10.924;2023-08-30T04:22:17;17.83;;;11.10;;
8421;SDS011;4248;48.196;10.924;2023-08-30T04:24:44;15.17;;;10.63;;
8421;SDS011;4248;48.196;10.924;2023-08-30T04:27:10;16.13;;;10.70;;
8421;SDS011;4248;48.196;10.924;2023-08-30T04:29:36;15.83;;;11.03;;
8421;SDS011;4248;48.196;10.924;2023-08-30T04:32:01;15.43;;;10.77;;
8421;SDS011;4248;48.196;10.924;2023-08-30T04:34:27;16.80;;;11.63;;
8421;SDS011;4248;48.196;10.924;2023-08-30T04:36:54;17.70;;;12.40;;
8421;SDS011;4248;48.196;10.924;2023-08-30T04:39:20;17.30;;;11.60;;
8421;SDS011;4248;48.196;10.924;2023-08-30T04:41:46;19.23;;;12.17;;
8421;SDS011;4248;48.196;10.924;2023-08-30T04:44:11;18.57;;;12.73;;
8421;SDS011;4248;48.196;10.924;2023-08-30T04:46:37;16.93;;;12.23;;
8421;SDS011;4248;48.196;10.924;2023-08-30T04:49:03;18.40;;;12.87;;
8421;SDS011;4248;48.196;10.924;2023-08-30T04:51:28;21.60;;;13.13;;
8421;SDS011;4248;48.196;10.924;2023-08-30T04:53:54;19.50;;;12.50;;
8421;SDS011;4248;48.196;10.924;2023-08-30T04:56:20;19.43;;;12.40;;
8421;SDS011;4248;48.196;10.924;2023-08-30T04:58:45;20.03;;;13.40;;
8421;SDS011;4248;48.196;10.924;2023-08-30T05:01:11;20.20;;;13.33;;
8421;SDS011;4248;48.196;10.924;2023-08-30T05:03:39;18.07;;;12.73;;
8421;SDS011;4248;48.196;10.924;2023-08-30T05:06:05;19.37;;;13.93;;
8421;SDS011;4248;48.196;10.924;2023-08-30T05:08:31;17.27;;;11.70;;
8421;SDS011;4248;48.196;10.924;2023-08-30T05:10:57;17.30;;;12.73;;
8421;SDS011;4248;48.196;10.924;2023-08-30T05:13:22;18.20;;;11.97;;
8421;SDS011;4248;48.196;10.924;2023-08-30T05:15:48;19.23;;;13.10;;
8421;SDS011;4248;48.196;10.924;2023-08-30T05:18:14;20.60;;;13.40;;
8421;SDS011;4248;48.196;10.924;2023-08-30T05:20:40;18.70;;;12.90;;
8421;SDS011;4248;48.196;10.924;2023-08-30T05:23:05;18.23;;;13.20;;
8421;SDS011;4248;48.196;10.924;2023-08-30T05:25:31;18.30;;;12.70;;
8421;SDS011;4248;48.196;10.924;2023-08-30T05:27:57;20.13;;;13.07;;
8421;SDS011;4248;48.196;10.924;2023-08-30T05:30:22;18.60;;;11.97;;
8421;SDS011;4248;48.196;10.924;2023-08-30T05:32:48;19.33;;;12.37;;
8421;SDS011;4248;48.196;10.924;2023-08-30T05:35:14;15.70;;;11.20;;
8421;SDS011;4248;48.196;10.924;2023-08-30T05:37:40;16.87;;;12.13;;
8421;SDS011;4248;48.196;10.924;2023-08-30T05:40:05;36.17;;;14.73;;
8421;SDS011;4248;48.196;10.924;2023-08-30T05:42:32;20.40;;;14.90;;
8421;SDS011;4248;48.196;10.924;2023-08-30T05:44:58;22.00;;;13.80;;
8421;SDS011;4248;48.196;10.924;2023-08-30T05:47:24;18.77;;;13.60;;
8421;SDS011;4248;48.196;10.924;2023-08-30T05:49:49;19.77;;;13.90;;
8421;SDS011;4248;48.196;10.924;2023-08-30T05:52:15;20.17;;;14.63;;
8421;SDS011;4248;48.196;10.924;2023-08-30T05:54:43;21.70;;;15.70;;
8421;SDS011;4248;48.196;10.924;2023-08-30T05:57:12;20.00;;;12.97;;
8421;SDS011;4248;48.196;10.924;2023-08-30T05:59:38;17.97;;;12.17;;
8421;SDS011;4248;48.196;10.924;2023-08-30T06:02:03;19.20;;;13.33;;
8421;SDS011;4248;48.196;10.924;2023-08-30T06:04:29;21.70;;;13.87;;
8421;SDS011;4248;48.196;10.924;2023-08-30T06:06:55;16.70;;;13.33;;
8421;SDS011;4248;48.196;10.924;2023-08-30T06:09:21;16.30;;;12.47;;
8421;SDS011;4248;48.196;10.924;2023-08-30T06:11:46;19.30;;;14.37;;
8421;SDS011;4248;48.196;10.924;2023-08-30T06:14:12;15.60;;;12.60;;
8421;SDS011;4248;48.196;10.924;2023-08-30T06:16:38;19.10;;;13.20;;
8421;SDS011;4248;48.196;10.924;2023-08-30T06:19:03;17.43;;;13.53;;
8421;SDS011;4248;48.196;10.924;2023-08-30T06:21:29;18.10;;;12.67;;
8421;SDS011;4248;48.196;10.924;2023-08-30T06:23:54;21.20;;;11.50;;
8421;SDS011;4248;48.196;10.924;2023-08-30T06:26:20;13.90;;;11.00;;
8421;SDS011;4248;48.196;10.924;2023-08-30T06:28:46;16.33;;;10.97;;
8421;SDS011;4248;48.196;10.924;2023-08-30T06:31:11;22.13;;;11.47;;
8421;SDS011;4248;48.196;10.924;2023-08-30T06:33:37;14.97;;;10.57;;
8421;SDS011;4248;48.196;10.924;2023-08-30T06:36:03;16.97;;;10.00;;
8421;SDS011;4248;48.196;10.924;2023-08-30T06:38:29;13.30;;;9.70;;
8421;SDS011;4248;48.196;10.924;2023-08-30T06:40:57;16.37;;;11.73;;
8421;SDS011;4248;48.196;10.924;2023-08-30T06:43:23;14.27;;;10.30;;
8421;SDS011;4248;48.196;10.924;2023-08-30T06:45:49;14.77;;;10.77;;
8421;SDS011;4248;48.196;10.924;2023-08-30T06:48:14;14.13;;;10.63;;
8421;SDS011;4248;48.196;10.924;2023-08-30T06:50:40;15.80;;;11.00;;
8421;SDS011;4248;48.196;10.924;2023-08-30T06:53:06;13.07;;;10.33;;
8421;SDS011;4248;48.196;10.924;2023-08-30T06:55:31;15.50;;;10.40;;
8421;SDS011;4248;48.196;10.924;2023-08-30T06:57:58;15.60;;;10.40;;
8421;SDS011;4248;48.196;10.924;2023-08-30T07:00:24;15.13;;;10.13;;
8421;SDS011;4248;48.196;10.924;2023-08-30T07:02:49;14.90;;;10.50;;
8421;SDS011;4248;48.196;10.924;2023-08-30T07:05:15;14.40;;;10.70;;
8421;SDS011;4248;48.196;10.924;2023-08-30T07:07:41;13.30;;;9.80;;
8421;SDS011;4248;48.196;10.924;2023-08-30T07:10:06;12.63;;;9.87;;
8421;SDS011;4248;48.196;10.924;2023-08-30T07:12:33;12.90;;;9.73;;
8421;SDS011;4248;48.196;10.924;2023-08-30T07:14:58;13.63;;;10.00;;
8421;SDS011;4248;48.196;10.924;2023-08-30T07:17:24;14.77;;;8.80;;
8421;SDS011;4248;48.196;10.924;2023-08-30T07:19:49;15.83;;;10.60;;
8421;SDS011;4248;48.196;10.924;2023-08-30T07:22:15;13.30;;;10.10;;
8421;SDS011;4248;48.196;10.924;2023-08-30T07:24:42;11.63;;;8.73;;
8421;SDS011;4248;48.196;10.924;2023-08-30T07:27:08;11.50;;;9.10;;
8421;SDS011;4248;48.196;10.924;2023-08-30T07:29:34;12.83;;;9.33;;
8421;SDS011;4248;48.196;10.924;2023-08-30T07:32:00;9.80;;;8.20;;
8421;SDS011;4248;48.196;10.924;2023-08-30T07:34:25;12.33;;;8.40;;
8421;SDS011;4248;48.196;10.924;2023-08-30T07:36:53;11.57;;;8.57;;
8421;SDS011;4248;48.196;10.924;2023-08-30T07:39:20;12.13;;;7.90;;
8421;SDS011;4248;48.196;10.924;2023-08-30T07:41:46;20.50;;;12.00;;
8421;SDS011;4248;48.196;10.924;2023-08-30T07:44:11;9.20;;;7.57;;
8421;SDS011;4248;48.196;10.924;2023-08-30T07:46:37;10.07;;;7.50;;
8421;SDS011;4248;48.196;10.924;2023-08-30T07:49:02;14.07;;;8.63;;
8421;SDS011;4248;48.196;10.924;2023-08-30T07:51:28;13.67;;;8.00;;
8421;SDS011;4248;48.196;10.924;2023-08-30T07:53:53;13.73;;;7.23;;
8421;SDS011;4248;48.196;10.924;2023-08-30T07:56:19;9.70;;;7.67;;
8421;SDS011;4248;48.196;10.924;2023-08-30T07:58:45;10.97;;;7.30;;
8421;SDS011;4248;48.196;10.924;2023-08-30T08:01:10;8.27;;;6.70;;
8421;SDS011;4248;48.196;10.924;2023-08-30T08:03:36;9.70;;;7.37;;
8421;SDS011;4248;48.196;10.924;2023-08-30T08:06:01;12.20;;;9.23;;
8421;SDS011;4248;48.196;10.924;2023-08-30T08:08:28;11.83;;;8.10;;
8421;SDS011;4248;48.196;10.924;2023-08-30T08:10:53;8.63;;;6.77;;
8421;SDS011;4248;48.196;10.924;2023-08-30T08:13:19;10.73;;;7.70;;
8421;SDS011;4248;48.196;10.924;2023-08-30T08:15:45;9.17;;;6.40;;
8421;SDS011;4248;48.196;10.924;2023-08-30T08:18:10;8.90;;;6.53;;
8421;SDS011;4248;48.196;10.924;2023-08-30T08:20:36;11.07;;;7.97;;
8421;SDS011;4248;48.196;10.924;2023-08-30T08:23:02;9.23;;;6.90;;
8421;SDS011;4248;48.196;10.924;2023-08-30T08:25:28;9.17;;;7.50;;
8421;SDS011;4248;48.196;10.924;2023-08-30T08:27:54;9.13;;;6.87;;
8421;SDS011;4248;48.196;10.924;2023-08-30T08:30:19;8.73;;;6.53;;
8421;SDS011;4248;48.196;10.924;2023-08-30T08:32:46;19.47;;;7.10;;
8421;SDS011;4248;48.196;10.924;2023-08-30T08:35:15;10.13;;;6.87;;
8421;SDS011;4248;48.196;10.924;2023-08-30T08:37:40;7.93;;;6.50;;
8421;SDS011;4248;48.196;10.924;2023-08-30T08:40:06;11.37;;;7.17;;
8421;SDS011;4248;48.196;10.924;2023-08-30T08:42:35;10.20;;;7.07;;
8421;SDS011;4248;48.196;10.924;2023-08-30T08:45:02;9.90;;;7.20;;
8421;SDS011;4248;48.196;10.924;2023-08-30T08:47:29;10.80;;;7.10;;
8421;SDS011;4248;48.196;10.924;2023-08-30T08:49:56;9.10;;;6.63;;
8421;SDS011;4248;48.196;10.924;2023-08-30T08:52:22;9.83;;;6.80;;
8421;SDS011;4248;48.196;10.924;2023-08-30T08:54:49;9.40;;;6.50;;
8421;SDS011;4248;48.196;10.924;2023-08-30T08:57:15;8.50;;;6.60;;
8421;SDS011;4248;48.196;10.924;2023-08-30T08:59:42;7.90;;;5.80;;
8421;SDS011;4248;48.196;10.924;2023-08-30T09:02:08;17.70;;;6.73;;
8421;SDS011;4248;48.196;10.924;2023-08-30T09:04:37;7.73;;;6.33;;
8421;SDS011;4248;48.196;10.924;2023-08-30T09:07:03;7.60;;;5.40;;
8421;SDS011;4248;48.196;10.924;2023-08-30T09:09:29;7.20;;;4.93;;
8421;SDS011;4248;48.196;10.924;2023-08-30T09:11:55;6.33;;;4.80;;
8421;SDS011;4248;48.196;10.924;2023-08-30T09:14:21;7.20;;;5.90;;
8421;SDS011;4248;48.196;10.924;2023-08-30T09:16:56;6.73;;;4.70;;
8421;SDS011;4248;48.196;10.924;2023-08-30T09:19:27;6.23;;;4.80;;
8421;SDS011;4248;48.196;10.924;2023-08-30T09:21:56;7.10;;;5.77;;
8421;SDS011;4248;48.196;10.924;2023-08-30T09:24:23;7.20;;;4.80;;
8421;SDS011;4248;48.196;10.924;2023-08-30T09:26:50;5.60;;;4.30;;
8421;SDS011;4248;48.196;10.924;2023-08-30T09:29:18;4.70;;;3.77;;
8421;SDS011;4248;48.196;10.924;2023-08-30T09:31:44;5.53;;;4.20;;
8421;SDS011;4248;48.196;10.924;2023-08-30T09:34:10;6.87;;;4.90;;
8421;SDS011;4248;48.196;10.924;2023-08-30T09:36:40;5.73;;;4.00;;
8421;SDS011;4248;48.196;10.924;2023-08-30T09:39:13;9.33;;;3.80;;
8421;SDS011;4248;48.196;10.924;2023-08-30T09:41:45;6.80;;;4.43;;
8421;SDS011;4248;48.196;10.924;2023-08-30T09:44:13;6.00;;;4.23;;
8421;SDS011;4248;48.196;10.924;2023-08-30T09:49:59;6.20;;;3.60;;
8421;SDS011;4248;48.196;10.924;2023-08-30T09:52:26;5.87;;;3.70;;
8421;SDS011;4248;48.196;10.924;2023-08-30T09:54:55;6.07;;;3.53;;
8421;SDS011;4248;48.196;10.924;2023-08-30T09:57:22;4.13;;;2.57;;
8421;SDS011;4248;48.196;10.924;2023-08-30T09:59:48;3.80;;;2.33;;
8421;SDS011;4248;48.196;10.924;2023-08-30T10:02:14;6.53;;;2.80;;
8421;SDS011;4248;48.196;10.924;2023-08-30T10:04:40;7.20;;;2.97;;
8421;SDS011;4248;48.196;10.924;2023-08-30T10:07:07;4.67;;;2.97;;
8421;SDS011;4248;48.196;10.924;2023-08-30T10:09:34;6.00;;;2.40;;
8421;SDS011;4248;48.196;10.924;2023-08-30T10:12:03;5.50;;;3.20;;
8421;SDS011;4248;48.196;10.924;2023-08-30T10:14:30;4.13;;;2.63;;
8421;SDS011;4248;48.196;10.924;2023-08-30T10:17:01;6.50;;;3.50;;
8421;SDS011;4248;48.196;10.924;2023-08-30T10:19:32;4.87;;;3.00;;
8421;SDS011;4248;48.196;10.924;2023-08-30T10:24:32;5.40;;;2.90;;
8421;SDS011;4248;48.196;10.924;2023-08-30T10:27:03;4.20;;;2.50;;
8421;SDS011;4248;48.196;10.924;2023-08-30T10:29:30;4.90;;;3.27;;
8421;SDS011;4248;48.196;10.924;2023-08-30T10:32:05;5.03;;;2.90;;
8421;SDS011;4248;48.196;10.924;2023-08-30T10:34:31;6.00;;;2.30;;
8421;SDS011;4248;48.196;10.924;2023-08-30T10:37:02;4.90;;;2.83;;
8421;SDS011;4248;48.196;10.924;2023-08-30T10:39:34;3.70;;;2.30;;
8421;SDS011;4248;48.196;10.924;2023-08-30T10:42:06;4.77;;;2.93;;
8421;SDS011;4248;48.196;10.924;2023-08-30T10:49:55;3.77;;;2.27;;
8421;SDS011;4248;48.196;10.924;2023-08-30T10:52:22;4.00;;;2.03;;
8421;SDS011;4248;48.196;10.924;2023-08-30T10:54:49;4.80;;;1.80;;
8421;SDS011;4248;48.196;10.924;2023-08-30T10:57:17;4.10;;;2.30;;
8421;SDS011;4248;48.196;10.924;2023-08-30T11:00:05;4.90;;;2.77;;
8421;SDS011;4248;48.196;10.924;2023-08-30T11:02:35;3.90;;;2.17;;
8421;SDS011;4248;48.196;10.924;2023-08-30T11:05:02;4.63;;;2.60;;
8421;SDS011;4248;48.196;10.924;2023-08-30T11:07:28;4.47;;;2.20;;
8421;SDS011;4248;48.196;10.924;2023-08-30T11:09:54;5.63;;;2.93;;
8421;SDS011;4248;48.196;10.924;2023-08-30T11:12:20;4.53;;;2.73;;
8421;SDS011;4248;48.196;10.924;2023-08-30T11:14:51;4.67;;;2.70;;
8421;SDS011;4248;48.196;10.924;2023-08-30T11:17:17;8.60;;;2.97;;
8421;SDS011;4248;48.196;10.924;2023-08-30T11:19:44;4.40;;;3.10;;
8421;SDS011;4248;48.196;10.924;2023-08-30T11:22:10;6.63;;;3.40;;
8421;SDS011;4248;48.196;10.924;2023-08-30T11:24:37;4.47;;;2.67;;
8421;SDS011;4248;48.196;10.924;2023-08-30T11:27:03;3.80;;;2.80;;
8421;SDS011;4248;48.196;10.924;2023-08-30T11:29:28;4.93;;;2.80;;
8421;SDS011;4248;48.196;10.924;2023-08-30T11:31:54;4.40;;;2.90;;
8421;SDS011;4248;48.196;10.924;2023-08-30T11:34:20;6.10;;;2.97;;
8421;SDS011;4248;48.196;10.924;2023-08-30T11:36:47;3.73;;;2.30;;
8421;SDS011;4248;48.196;10.924;2023-08-30T11:39:14;3.23;;;2.03;;
8421;SDS011;4248;48.196;10.924;2023-08-30T11:41:41;5.20;;;2.50;;
8421;SDS011;4248;48.196;10.924;2023-08-30T11:44:07;8.37;;;2.97;;
8421;SDS011;4248;48.196;10.924;2023-08-30T11:46:33;6.00;;;3.00;;
8421;SDS011;4248;48.196;10.924;2023-08-30T11:48:58;5.03;;;2.33;;
8421;SDS011;4248;48.196;10.924;2023-08-30T11:51:25;3.63;;;2.10;;
8421;SDS011;4248;48.196;10.924;2023-08-30T11:53:50;4.03;;;2.10;;
8421;SDS011;4248;48.196;10.924;2023-08-30T11:56:17;3.17;;;2.03;;
8421;SDS011;4248;48.196;10.924;2023-08-30T11:58:44;5.80;;;2.50;;
8421;SDS011;4248;48.196;10.924;2023-08-30T12:01:09;5.27;;;1.77;;
8421;SDS011;4248;48.196;10.924;2023-08-30T12:03:36;9.40;;;2.20;;
8421;SDS011;4248;48.196;10.924;2023-08-30T12:06:02;5.87;;;1.80;;
8421;SDS011;4248;48.196;10.924;2023-08-30T12:08:31;4.73;;;1.97;;
8421;SDS011;4248;48.196;10.924;2023-08-30T12:10:57;5.87;;;1.80;;
8421;SDS011;4248;48.196;10.924;2023-08-30T12:13:26;3.90;;;1.93;;
8421;SDS011;4248;48.196;10.924;2023-08-30T12:15:52;5.00;;;2.63;;
8421;SDS011;4248;48.196;10.924;2023-08-30T12:18:32;4.77;;;2.27;;
8421;SDS011;4248;48.196;10.924;2023-08-30T12:20:58;4.40;;;2.43;;
8421;SDS011;4248;48.196;10.924;2023-08-30T12:23:25;4.90;;;2.20;;
8421;SDS011;4248;48.196;10.924;2023-08-30T12:26:04;4.77;;;2.50;;
8421;SDS011;4248;48.196;10.924;2023-08-30T12:28:32;4.77;;;2.57;;
8421;SDS011;4248;48.196;10.924;2023-08-30T12:30:59;3.70;;;2.43;;
8421;SDS011;4248;48.196;10.924;2023-08-30T12:33:25;6.57;;;2.50;;
8421;SDS011;4248;48.196;10.924;2023-08-30T12:35:54;6.17;;;2.53;;
8421;SDS011;4248;48.196;10.924;2023-08-30T12:38:20;7.30;;;3.00;;
8421;SDS011;4248;48.196;10.924;2023-08-30T12:40:47;3.97;;;2.23;;
8421;SDS011;4248;48.196;10.924;2023-08-30T12:43:14;5.13;;;2.93;;
8421;SDS011;4248;48.196;10.924;2023-08-30T12:45:41;4.37;;;1.93;;
8421;SDS011;4248;48.196;10.924;2023-08-30T12:48:07;5.03;;;1.90;;
8421;SDS011;4248;48.196;10.924;2023-08-30T12:50:35;3.33;;;1.70;;
8421;SDS011;4248;48.196;10.924;2023-08-30T12:53:02;3.53;;;1.60;;
8421;SDS011;4248;48.196;10.924;2023-08-30T12:55:31;3.70;;;1.67;;
8421;SDS011;4248;48.196;10.924;2023-08-30T12:57:57;2.87;;;1.63;;
8421;SDS011;4248;48.196;10.924;2023-08-30T13:00:23;3.77;;;1.50;;
8421;SDS011;4248;48.196;10.924;2023-08-30T13:02:49;2.93;;;1.60;;
8421;SDS011;4248;48.196;10.924;2023-08-30T13:05:15;4.30;;;1.80;;
8421;SDS011;4248;48.196;10.924;2023-08-30T13:07:41;4.33;;;1.70;;
8421;SDS011;4248;48.196;10.924;2023-08-30T13:10:07;4.33;;;1.57;;
8421;SDS011;4248;48.196;10.924;2023-08-30T13:12:33;3.53;;;2.00;;
8421;SDS011;4248;48.196;10.924;2023-08-30T13:14:59;4.10;;;1.50;;
8421;SDS011;4248;48.196;10.924;2023-08-30T13:17:26;3.03;;;1.37;;
8421;SDS011;4248;48.196;10.924;2023-08-30T13:19:51;3.30;;;1.87;;
8421;SDS011;4248;48.196;10.924;2023-08-30T13:22:17;4.23;;;1.73;;
8421;SDS011;4248;48.196;10.924;2023-08-30T13:24:43;2.93;;;1.57;;
8421;SDS011;4248;48.196;10.924;2023-08-30T13:27:09;2.93;;;1.60;;
8421;SDS011;4248;48.196;10.924;2023-08-30T13:29:35;2.70;;;1.60;;
8421;SDS011;4248;48.196;10.924;2023-08-30T13:32:00;3.70;;;1.93;;
8421;SDS011;4248;48.196;10.924;2023-08-30T13:34:26;3.20;;;1.87;;
8421;SDS011;4248;48.196;10.924;2023-08-30T13:36:52;3.13;;;1.77;;
8421;SDS011;4248;48.196;10.924;2023-08-30T13:39:17;3.00;;;1.37;;
8421;SDS011;4248;48.196;10.924;2023-08-30T13:41:45;3.20;;;1.80;;
8421;SDS011;4248;48.196;10.924;2023-08-30T13:44:11;4.53;;;1.67;;
8421;SDS011;4248;48.196;10.924;2023-08-30T13:46:37;2.97;;;1.47;;
8421;SDS011;4248;48.196;10.924;2023-08-30T13:49:03;3.20;;;1.70;;
8421;SDS011;4248;48.196;10.924;2023-08-30T13:51:28;3.60;;;1.57;;
8421;SDS011;4248;48.196;10.924;2023-08-30T13:53:55;3.37;;;1.73;;
8421;SDS011;4248;48.196;10.924;2023-08-30T13:56:20;2.77;;;1.57;;
8421;SDS011;4248;48.196;10.924;2023-08-30T13:58:47;2.70;;;1.60;;
8421;SDS011;4248;48.196;10.924;2023-08-30T14:01:12;2.50;;;1.47;;
8421;SDS011;4248;48.196;10.924;2023-08-30T14:03:38;4.97;;;1.80;;
8421;SDS011;4248;48.196;10.924;2023-08-30T14:06:04;3.03;;;1.80;;
8421;SDS011;4248;48.196;10.924;2023-08-30T14:08:30;3.17;;;1.90;;
8421;SDS011;4248;48.196;10.924;2023-08-30T14:10:56;5.60;;;1.93;;
8421;SDS011;4248;48.196;10.924;2023-08-30T14:13:22;4.80;;;1.87;;
8421;SDS011;4248;48.196;10.924;2023-08-30T14:15:48;5.07;;;1.70;;
8421;SDS011;4248;48.196;10.924;2023-08-30T14:18:13;4.33;;;2.00;;
8421;SDS011;4248;48.196;10.924;2023-08-30T14:20:40;5.63;;;2.13;;
8421;SDS011;4248;48.196;10.924;2023-08-30T14:23:07;7.80;;;1.83;;
8421;SDS011;4248;48.196;10.924;2023-08-30T14:25:32;3.40;;;1.73;;
8421;SDS011;4248;48.196;10.924;2023-08-30T14:27:58;3.53;;;1.43;;
8421;SDS011;4248;48.196;10.924;2023-08-30T14:30:24;7.63;;;2.20;;
8421;SDS011;4248;48.196;10.924;2023-08-30T14:32:50;3.80;;;1.70;;
8421;SDS011;4248;48.196;10.924;2023-08-30T14:35:16;5.00;;;2.00;;
8421;SDS011;4248;48.196;10.924;2023-08-30T14:37:42;3.10;;;1.57;;
8421;SDS011;4248;48.196;10.924;2023-08-30T14:40:08;4.83;;;2.10;;
8421;SDS011;4248;48.196;10.924;2023-08-30T14:42:33;5.27;;;1.90;;
8421;SDS011;4248;48.196;10.924;2023-08-30T14:44:59;4.17;;;1.80;;
8421;SDS011;4248;48.196;10.924;2023-08-30T14:47:25;2.80;;;1.60;;
8421;SDS011;4248;48.196;10.924;2023-08-30T14:49:50;3.80;;;2.10;;
8421;SDS011;4248;48.196;10.924;2023-08-30T14:52:16;3.70;;;1.80;;
8421;SDS011;4248;48.196;10.924;2023-08-30T14:54:42;6.20;;;1.70;;
8421;SDS011;4248;48.196;10.924;2023-08-30T14:57:08;3.17;;;1.60;;
8421;SDS011;4248;48.196;10.924;2023-08-30T14:59:33;3.70;;;2.00;;
8421;SDS011;4248;48.196;10.924;2023-08-30T15:02:00;3.13;;;1.83;;
8421;SDS011;4248;48.196;10.924;2023-08-30T15:04:25;3.87;;;2.00;;
8421;SDS011;4248;48.196;10.924;2023-08-30T15:06:51;3.90;;;1.80;;